sensor_id;sensor_type;location;lat;lon;timestamp;P1;durP1;ratioP1;P2;durP2;ratioP2
12758;SDS011;20944;47.048;15.390;2023-09-18T00:00:55;2.97;;;2.75;;
12758;SDS011;20944;47.048;15.390;2023-09-18T00:03:24;3.97;;;3.40;;
12758;SDS011;20944;47.048;15.390;2023-09-18T00:05:52;3.75;;;3.40;;
12758;SDS011;20944;47.048;15.390;2023-09-18T00:08:21;4.43;;;3.25;;
12758;SDS011;20944;47.048;15.390;2023-09-18T00:10:50;5.10;;;3.58;;
12758;SDS011;20944;47.048;15.390;2023-09-18T00:13:21;3.40;;;3.10;;
12758;SDS011;20944;47.048;15.390;2023-09-18T00:15:53;3.47;;;2.75;;
12758;SDS011;20944;47.048;15.390;2023-09-18T00:18:22;4.10;;;3.70;;
12758;SDS011;20944;47.048;15.390;2023-09-18T00:20:51;3.45;;;3.15;;
12758;SDS011;20944;47.048;15.390;2023-09-18T00:23:20;4.82;;;3.40;;
12758;SDS011;20944;47.048;15.390;2023-09-18T00:25:49;3.63;;;3.10;;
12758;SDS011;20944;47.048;15.390;2023-09-18T00:28:17;3.75;;;3.22;;
12758;SDS011;20944;47.048;15.390;2023-09-18T00:30:48;3.67;;;3.28;;
12758;SDS011;20944;47.048;15.390;2023-09-18T00:33:17;4.63;;;3.00;;
12758;SDS011;20944;47.048;15.390;2023-09-18T00:35:46;3.67;;;3.20;;
12758;SDS011;20944;47.048;15.390;2023-09-18T00:38:15;3.55;;;2.92;;
12758;SDS011;20944;47.048;15.390;2023-09-18T00:40:44;6.05;;;3.30;;
12758;SDS011;20944;47.048;15.390;2023-09-18T00:43:13;4.05;;;3.65;;
12758;SDS011;20944;47.048;15.390;2023-09-18T00:45:42;3.92;;;3.35;;
12758;SDS011;20944;47.048;15.390;2023-09-18T00:48:14;3.47;;;3.15;;
12758;SDS011;20944;47.048;15.390;2023-09-18T00:50:43;3.50;;;3.20;;
12758;SDS011;20944;47.048;15.390;2023-09-18T00:53:13;5.05;;;3.72;;
12758;SDS011;20944;47.048;15.390;2023-09-18T00:55:44;3.85;;;3.55;;
12758;SDS011;20944;47.048;15.390;2023-09-18T00:58:12;3.35;;;3.05;;
12758;SDS011;20944;47.048;15.390;2023-09-18T01:00:41;3.63;;;3.30;;
12758;SDS011;20944;47.048;15.390;2023-09-18T01:03:10;3.42;;;3.13;;
12758;SDS011;20944;47.048;15.390;2023-09-18T01:05:41;5.13;;;3.75;;
12758;SDS011;20944;47.048;15.390;2023-09-18T01:08:09;3.95;;;2.97;;
12758;SDS011;20944;47.048;15.390;2023-09-18T01:10:40;3.67;;;3.38;;
12758;SDS011;20944;47.048;15.390;2023-09-18T01:13:18;6.63;;;3.38;;
12758;SDS011;20944;47.048;15.390;2023-09-18T01:15:52;6.60;;;3.70;;
12758;SDS011;20944;47.048;15.390;2023-09-18T01:18:25;3.60;;;3.20;;
12758;SDS011;20944;47.048;15.390;2023-09-18T01:20:54;3.20;;;2.90;;
12758;SDS011;20944;47.048;15.390;2023-09-18T01:23:24;5.30;;;3.92;;
12758;SDS011;20944;47.048;15.390;2023-09-18T01:25:52;3.70;;;3.40;;
12758;SDS011;20944;47.048;15.390;2023-09-18T01:28:21;3.47;;;3.15;;
12758;SDS011;20944;47.048;15.390;2023-09-18T01:30:49;3.72;;;3.30;;
12758;SDS011;20944;47.048;15.390;2023-09-18T01:33:17;3.83;;;3.47;;
12758;SDS011;20944;47.048;15.390;2023-09-18T01:35:48;4.55;;;3.17;;
12758;SDS011;20944;47.048;15.390;2023-09-18T01:38:17;3.15;;;2.92;;
12758;SDS011;20944;47.048;15.390;2023-09-18T01:40:47;3.60;;;3.28;;
12758;SDS011;20944;47.048;15.390;2023-09-18T01:43:15;4.38;;;3.10;;
12758;SDS011;20944;47.048;15.390;2023-09-18T01:45:44;5.03;;;3.70;;
12758;SDS011;20944;47.048;15.390;2023-09-18T01:48:12;5.20;;;3.40;;
12758;SDS011;20944;47.048;15.390;2023-09-18T01:50:41;3.40;;;3.03;;
12758;SDS011;20944;47.048;15.390;2023-09-18T01:53:09;3.75;;;3.38;;
12758;SDS011;20944;47.048;15.390;2023-09-18T01:55:37;3.63;;;3.30;;
12758;SDS011;20944;47.048;15.390;2023-09-18T01:58:07;3.70;;;3.20;;
12758;SDS011;20944;47.048;15.390;2023-09-18T02:00:36;4.60;;;3.50;;
12758;SDS011;20944;47.048;15.390;2023-09-18T02:03:05;3.63;;;3.33;;
12758;SDS011;20944;47.048;15.390;2023-09-18T02:05:53;3.83;;;3.47;;
12758;SDS011;20944;47.048;15.390;2023-09-18T02:08:21;3.78;;;3.40;;
12758;SDS011;20944;47.048;15.390;2023-09-18T02:10:50;3.78;;;3.35;;
12758;SDS011;20944;47.048;15.390;2023-09-18T02:13:20;3.63;;;3.30;;
12758;SDS011;20944;47.048;15.390;2023-09-18T02:15:48;3.65;;;3.35;;
12758;SDS011;20944;47.048;15.390;2023-09-18T02:18:16;4.10;;;3.30;;
12758;SDS011;20944;47.048;15.390;2023-09-18T02:20:45;3.50;;;3.20;;
12758;SDS011;20944;47.048;15.390;2023-09-18T02:23:15;5.32;;;3.47;;
12758;SDS011;20944;47.048;15.390;2023-09-18T02:25:45;4.18;;;3.33;;
12758;SDS011;20944;47.048;15.390;2023-09-18T02:28:13;3.45;;;2.92;;
12758;SDS011;20944;47.048;15.390;2023-09-18T02:30:44;5.57;;;4.22;;
12758;SDS011;20944;47.048;15.390;2023-09-18T02:33:12;4.43;;;3.80;;
12758;SDS011;20944;47.048;15.390;2023-09-18T02:35:40;4.35;;;3.95;;
12758;SDS011;20944;47.048;15.390;2023-09-18T02:38:09;3.58;;;3.28;;
12758;SDS011;20944;47.048;15.390;2023-09-18T02:40:38;3.80;;;3.00;;
12758;SDS011;20944;47.048;15.390;2023-09-18T02:43:06;3.28;;;3.03;;
12758;SDS011;20944;47.048;15.390;2023-09-18T02:45:34;4.75;;;3.65;;
12758;SDS011;20944;47.048;15.390;2023-09-18T02:48:04;4.35;;;3.70;;
12758;SDS011;20944;47.048;15.390;2023-09-18T02:50:32;3.72;;;3.15;;
12758;SDS011;20944;47.048;15.390;2023-09-18T02:53:01;5.30;;;4.30;;
12758;SDS011;20944;47.048;15.390;2023-09-18T02:55:29;5.60;;;3.85;;
12758;SDS011;20944;47.048;15.390;2023-09-18T02:57:57;3.72;;;3.38;;
12758;SDS011;20944;47.048;15.390;2023-09-18T03:00:26;3.35;;;3.05;;
12758;SDS011;20944;47.048;15.390;2023-09-18T03:03:10;4.07;;;3.50;;
12758;SDS011;20944;47.048;15.390;2023-09-18T03:05:40;5.18;;;3.60;;
12758;SDS011;20944;47.048;15.390;2023-09-18T03:08:09;3.67;;;3.25;;
12758;SDS011;20944;47.048;15.390;2023-09-18T03:10:38;5.85;;;3.33;;
12758;SDS011;20944;47.048;15.390;2023-09-18T03:13:08;4.75;;;3.75;;
12758;SDS011;20944;47.048;15.390;2023-09-18T03:15:37;3.63;;;3.33;;
12758;SDS011;20944;47.048;15.390;2023-09-18T03:18:06;4.65;;;4.00;;
12758;SDS011;20944;47.048;15.390;2023-09-18T03:20:36;5.13;;;3.78;;
12758;SDS011;20944;47.048;15.390;2023-09-18T03:23:04;4.50;;;3.58;;
12758;SDS011;20944;47.048;15.390;2023-09-18T03:25:32;3.95;;;3.58;;
12758;SDS011;20944;47.048;15.390;2023-09-18T03:28:16;3.85;;;3.50;;
12758;SDS011;20944;47.048;15.390;2023-09-18T03:30:45;4.55;;;3.80;;
12758;SDS011;20944;47.048;15.390;2023-09-18T03:33:13;4.47;;;3.90;;
12758;SDS011;20944;47.048;15.390;2023-09-18T03:35:46;5.47;;;4.13;;
12758;SDS011;20944;47.048;15.390;2023-09-18T03:38:16;4.75;;;4.35;;
12758;SDS011;20944;47.048;15.390;2023-09-18T03:40:45;4.15;;;3.75;;
12758;SDS011;20944;47.048;15.390;2023-09-18T03:43:13;4.28;;;3.88;;
12758;SDS011;20944;47.048;15.390;2023-09-18T03:45:41;4.50;;;3.85;;
12758;SDS011;20944;47.048;15.390;2023-09-18T03:48:09;6.85;;;3.88;;
12758;SDS011;20944;47.048;15.390;2023-09-18T03:50:38;4.95;;;3.95;;
12758;SDS011;20944;47.048;15.390;2023-09-18T03:53:09;3.30;;;3.00;;
12758;SDS011;20944;47.048;15.390;2023-09-18T03:55:37;3.05;;;2.75;;
12758;SDS011;20944;47.048;15.390;2023-09-18T03:58:05;4.68;;;3.17;;
12758;SDS011;20944;47.048;15.390;2023-09-18T04:00:34;5.43;;;2.63;;
12758;SDS011;20944;47.048;15.390;2023-09-18T04:03:02;4.20;;;3.63;;
12758;SDS011;20944;47.048;15.390;2023-09-18T04:05:31;4.28;;;3.13;;
12758;SDS011;20944;47.048;15.390;2023-09-18T04:07:59;3.97;;;3.58;;
12758;SDS011;20944;47.048;15.390;2023-09-18T04:10:30;4.95;;;4.18;;
12758;SDS011;20944;47.048;15.390;2023-09-18T04:12:59;4.63;;;3.88;;
12758;SDS011;20944;47.048;15.390;2023-09-18T04:15:27;4.22;;;3.83;;
12758;SDS011;20944;47.048;15.390;2023-09-18T04:17:57;4.30;;;3.90;;
12758;SDS011;20944;47.048;15.390;2023-09-18T04:20:25;5.03;;;3.75;;
12758;SDS011;20944;47.048;15.390;2023-09-18T04:25:50;5.07;;;3.42;;
12758;SDS011;20944;47.048;15.390;2023-09-18T04:28:19;3.90;;;3.58;;
12758;SDS011;20944;47.048;15.390;2023-09-18T04:30:49;4.20;;;3.80;;
12758;SDS011;20944;47.048;15.390;2023-09-18T04:33:17;4.82;;;4.15;;
12758;SDS011;20944;47.048;15.390;2023-09-18T04:35:46;6.13;;;4.55;;
12758;SDS011;20944;47.048;15.390;2023-09-18T04:38:14;4.88;;;3.97;;
12758;SDS011;20944;47.048;15.390;2023-09-18T04:40:43;7.35;;;3.78;;
12758;SDS011;20944;47.048;15.390;2023-09-18T04:43:13;4.00;;;3.65;;
12758;SDS011;20944;47.048;15.390;2023-09-18T04:45:42;4.28;;;3.88;;
12758;SDS011;20944;47.048;15.390;2023-09-18T04:48:10;4.22;;;3.83;;
12758;SDS011;20944;47.048;15.390;2023-09-18T04:50:38;5.40;;;4.53;;
12758;SDS011;20944;47.048;15.390;2023-09-18T04:53:07;4.80;;;4.30;;
12758;SDS011;20944;47.048;15.390;2023-09-18T04:55:35;5.47;;;4.20;;
12758;SDS011;20944;47.048;15.390;2023-09-18T04:58:05;4.35;;;3.58;;
12758;SDS011;20944;47.048;15.390;2023-09-18T05:00:34;5.90;;;3.92;;
12758;SDS011;20944;47.048;15.390;2023-09-18T05:03:03;6.82;;;4.10;;
12758;SDS011;20944;47.048;15.390;2023-09-18T05:05:33;5.75;;;3.95;;
12758;SDS011;20944;47.048;15.390;2023-09-18T05:08:01;4.85;;;4.03;;
12758;SDS011;20944;47.048;15.390;2023-09-18T05:10:31;5.95;;;3.92;;
12758;SDS011;20944;47.048;15.390;2023-09-18T05:12:59;6.07;;;3.70;;
12758;SDS011;20944;47.048;15.390;2023-09-18T05:15:28;4.95;;;3.92;;
12758;SDS011;20944;47.048;15.390;2023-09-18T05:17:58;8.02;;;4.10;;
12758;SDS011;20944;47.048;15.390;2023-09-18T05:20:28;5.30;;;4.55;;
12758;SDS011;20944;47.048;15.390;2023-09-18T05:22:57;4.25;;;3.85;;
12758;SDS011;20944;47.048;15.390;2023-09-18T05:25:27;5.72;;;4.30;;
12758;SDS011;20944;47.048;15.390;2023-09-18T05:27:58;4.85;;;4.10;;
12758;SDS011;20944;47.048;15.390;2023-09-18T05:30:29;4.45;;;3.97;;
12758;SDS011;20944;47.048;15.390;2023-09-18T05:33:02;5.65;;;4.50;;
12758;SDS011;20944;47.048;15.390;2023-09-18T05:35:32;6.38;;;4.63;;
12758;SDS011;20944;47.048;15.390;2023-09-18T05:38:00;5.15;;;4.30;;
12758;SDS011;20944;47.048;15.390;2023-09-18T05:40:29;6.65;;;4.43;;
12758;SDS011;20944;47.048;15.390;2023-09-18T05:42:57;4.57;;;4.07;;
12758;SDS011;20944;47.048;15.390;2023-09-18T05:45:26;6.82;;;4.68;;
12758;SDS011;20944;47.048;15.390;2023-09-18T05:47:54;5.85;;;4.43;;
12758;SDS011;20944;47.048;15.390;2023-09-18T05:50:32;4.53;;;4.13;;
12758;SDS011;20944;47.048;15.390;2023-09-18T05:53:01;5.85;;;5.15;;
12758;SDS011;20944;47.048;15.390;2023-09-18T05:55:32;6.72;;;4.55;;
12758;SDS011;20944;47.048;15.390;2023-09-18T05:58:01;8.20;;;4.47;;
12758;SDS011;20944;47.048;15.390;2023-09-18T06:00:31;9.05;;;5.28;;
12758;SDS011;20944;47.048;15.390;2023-09-18T06:03:00;5.75;;;4.68;;
12758;SDS011;20944;47.048;15.390;2023-09-18T06:05:28;7.38;;;4.55;;
12758;SDS011;20944;47.048;15.390;2023-09-18T06:08:00;4.93;;;4.25;;
12758;SDS011;20944;47.048;15.390;2023-09-18T06:10:28;6.05;;;4.60;;
12758;SDS011;20944;47.048;15.390;2023-09-18T06:12:56;4.90;;;4.45;;
12758;SDS011;20944;47.048;15.390;2023-09-18T06:15:31;5.97;;;4.45;;
12758;SDS011;20944;47.048;15.390;2023-09-18T06:17:59;4.80;;;3.90;;
12758;SDS011;20944;47.048;15.390;2023-09-18T06:20:28;8.38;;;5.85;;
12758;SDS011;20944;47.048;15.390;2023-09-18T06:22:56;10.55;;;6.35;;
12758;SDS011;20944;47.048;15.390;2023-09-18T06:25:26;6.80;;;5.00;;
12758;SDS011;20944;47.048;15.390;2023-09-18T06:27:54;6.38;;;4.47;;
12758;SDS011;20944;47.048;15.390;2023-09-18T06:30:22;9.30;;;5.35;;
12758;SDS011;20944;47.048;15.390;2023-09-18T06:32:50;6.32;;;5.10;;
12758;SDS011;20944;47.048;15.390;2023-09-18T06:35:19;6.75;;;4.93;;
12758;SDS011;20944;47.048;15.390;2023-09-18T06:37:48;8.05;;;4.95;;
12758;SDS011;20944;47.048;15.390;2023-09-18T06:40:16;6.85;;;5.60;;
12758;SDS011;20944;47.048;15.390;2023-09-18T06:42:46;5.90;;;5.05;;
12758;SDS011;20944;47.048;15.390;2023-09-18T06:45:15;5.93;;;5.28;;
12758;SDS011;20944;47.048;15.390;2023-09-18T06:47:43;6.60;;;4.68;;
12758;SDS011;20944;47.048;15.390;2023-09-18T06:50:11;5.03;;;4.45;;
12758;SDS011;20944;47.048;15.390;2023-09-18T06:52:40;6.68;;;5.25;;
12758;SDS011;20944;47.048;15.390;2023-09-18T06:55:08;8.10;;;4.88;;
12758;SDS011;20944;47.048;15.390;2023-09-18T06:57:37;4.93;;;4.22;;
12758;SDS011;20944;47.048;15.390;2023-09-18T07:00:09;4.70;;;4.05;;
12758;SDS011;20944;47.048;15.390;2023-09-18T07:02:37;5.43;;;4.72;;
12758;SDS011;20944;47.048;15.390;2023-09-18T07:05:06;5.50;;;4.43;;
12758;SDS011;20944;47.048;15.390;2023-09-18T07:07:34;4.78;;;4.25;;
12758;SDS011;20944;47.048;15.390;2023-09-18T07:10:03;5.93;;;4.80;;
12758;SDS011;20944;47.048;15.390;2023-09-18T07:12:32;4.25;;;3.85;;
12758;SDS011;20944;47.048;15.390;2023-09-18T07:15:00;5.72;;;4.80;;
12758;SDS011;20944;47.048;15.390;2023-09-18T07:17:33;5.18;;;4.38;;
12758;SDS011;20944;47.048;15.390;2023-09-18T07:20:03;5.40;;;4.30;;
12758;SDS011;20944;47.048;15.390;2023-09-18T07:22:44;4.95;;;4.22;;
12758;SDS011;20944;47.048;15.390;2023-09-18T07:25:13;3.90;;;3.60;;
12758;SDS011;20944;47.048;15.390;2023-09-18T07:27:41;4.60;;;3.78;;
12758;SDS011;20944;47.048;15.390;2023-09-18T07:30:10;6.05;;;4.20;;
12758;SDS011;20944;47.048;15.390;2023-09-18T07:32:43;4.82;;;4.03;;
12758;SDS011;20944;47.048;15.390;2023-09-18T07:35:12;5.28;;;4.55;;
12758;SDS011;20944;47.048;15.390;2023-09-18T07:37:41;3.92;;;3.63;;
12758;SDS011;20944;47.048;15.390;2023-09-18T07:40:12;5.68;;;4.25;;
12758;SDS011;20944;47.048;15.390;2023-09-18T07:42:39;5.25;;;4.70;;
12758;SDS011;20944;47.048;15.390;2023-09-18T07:45:10;6.32;;;3.65;;
12758;SDS011;20944;47.048;15.390;2023-09-18T07:47:38;5.63;;;4.32;;
12758;SDS011;20944;47.048;15.390;2023-09-18T07:50:09;4.95;;;4.25;;
12758;SDS011;20944;47.048;15.390;2023-09-18T07:52:37;5.57;;;3.95;;
12758;SDS011;20944;47.048;15.390;2023-09-18T07:55:06;5.13;;;3.55;;
12758;SDS011;20944;47.048;15.390;2023-09-18T07:57:36;7.35;;;4.32;;
12758;SDS011;20944;47.048;15.390;2023-09-18T08:00:05;6.50;;;4.55;;
12758;SDS011;20944;47.048;15.390;2023-09-18T08:02:39;5.65;;;3.90;;
12758;SDS011;20944;47.048;15.390;2023-09-18T08:05:09;5.07;;;4.30;;
12758;SDS011;20944;47.048;15.390;2023-09-18T08:07:37;5.38;;;4.03;;
12758;SDS011;20944;47.048;15.390;2023-09-18T08:10:07;4.10;;;3.70;;
12758;SDS011;20944;47.048;15.390;2023-09-18T08:12:36;4.50;;;4.10;;
12758;SDS011;20944;47.048;15.390;2023-09-18T08:15:05;4.43;;;3.95;;
12758;SDS011;20944;47.048;15.390;2023-09-18T08:17:34;4.13;;;3.72;;
12758;SDS011;20944;47.048;15.390;2023-09-18T08:20:03;6.40;;;4.43;;
12758;SDS011;20944;47.048;15.390;2023-09-18T08:22:40;5.45;;;4.57;;
12758;SDS011;20944;47.048;15.390;2023-09-18T08:25:09;6.72;;;4.75;;
12758;SDS011;20944;47.048;15.390;2023-09-18T08:27:38;8.32;;;4.75;;
12758;SDS011;20944;47.048;15.390;2023-09-18T08:30:09;6.07;;;4.63;;
12758;SDS011;20944;47.048;15.390;2023-09-18T08:32:38;4.72;;;3.63;;
12758;SDS011;20944;47.048;15.390;2023-09-18T08:35:08;6.18;;;4.65;;
12758;SDS011;20944;47.048;15.390;2023-09-18T08:37:36;4.78;;;4.25;;
12758;SDS011;20944;47.048;15.390;2023-09-18T08:40:07;5.78;;;4.38;;
12758;SDS011;20944;47.048;15.390;2023-09-18T08:42:38;5.15;;;4.65;;
12758;SDS011;20944;47.048;15.390;2023-09-18T08:45:09;5.28;;;4.57;;
12758;SDS011;20944;47.048;15.390;2023-09-18T08:47:38;6.10;;;4.25;;
12758;SDS011;20944;47.048;15.390;2023-09-18T08:50:08;9.30;;;4.82;;
12758;SDS011;20944;47.048;15.390;2023-09-18T08:52:37;6.60;;;4.65;;
12758;SDS011;20944;47.048;15.390;2023-09-18T08:55:07;14.30;;;5.00;;
12758;SDS011;20944;47.048;15.390;2023-09-18T08:57:37;7.50;;;4.53;;
12758;SDS011;20944;47.048;15.390;2023-09-18T09:00:07;5.80;;;3.88;;
12758;SDS011;20944;47.048;15.390;2023-09-18T09:02:38;4.53;;;3.90;;
12758;SDS011;20944;47.048;15.390;2023-09-18T09:05:07;5.68;;;4.60;;
12758;SDS011;20944;47.048;15.390;2023-09-18T09:07:35;4.57;;;4.15;;
12758;SDS011;20944;47.048;15.390;2023-09-18T09:10:04;4.53;;;4.15;;
12758;SDS011;20944;47.048;15.390;2023-09-18T09:12:50;5.93;;;4.20;;
12758;SDS011;20944;47.048;15.390;2023-09-18T09:15:21;4.45;;;3.88;;
12758;SDS011;20944;47.048;15.390;2023-09-18T09:17:51;5.15;;;3.88;;
12758;SDS011;20944;47.048;15.390;2023-09-18T09:20:20;5.90;;;4.53;;
12758;SDS011;20944;47.048;15.390;2023-09-18T09:22:48;5.65;;;4.25;;
12758;SDS011;20944;47.048;15.390;2023-09-18T09:25:21;5.53;;;4.65;;
12758;SDS011;20944;47.048;15.390;2023-09-18T09:27:54;5.13;;;4.30;;
12758;SDS011;20944;47.048;15.390;2023-09-18T09:30:23;5.15;;;3.83;;
12758;SDS011;20944;47.048;15.390;2023-09-18T09:32:54;6.43;;;3.97;;
12758;SDS011;20944;47.048;15.390;2023-09-18T09:35:24;5.05;;;3.88;;
12758;SDS011;20944;47.048;15.390;2023-09-18T09:37:56;5.40;;;4.45;;
12758;SDS011;20944;47.048;15.390;2023-09-18T09:40:28;7.22;;;4.03;;
12758;SDS011;20944;47.048;15.390;2023-09-18T09:42:58;4.45;;;3.90;;
12758;SDS011;20944;47.048;15.390;2023-09-18T09:45:31;3.67;;;3.38;;
12758;SDS011;20944;47.048;15.390;2023-09-18T09:48:03;4.35;;;3.92;;
12758;SDS011;20944;47.048;15.390;2023-09-18T09:50:33;3.50;;;3.20;;
12758;SDS011;20944;47.048;15.390;2023-09-18T09:53:12;5.28;;;3.25;;
12758;SDS011;20944;47.048;15.390;2023-09-18T09:55:41;7.00;;;4.03;;
12758;SDS011;20944;47.048;15.390;2023-09-18T09:58:10;6.85;;;3.95;;
12758;SDS011;20944;47.048;15.390;2023-09-18T10:00:41;3.55;;;3.25;;
12758;SDS011;20944;47.048;15.390;2023-09-18T10:03:15;4.57;;;3.67;;
12758;SDS011;20944;47.048;15.390;2023-09-18T10:05:45;3.85;;;3.38;;
12758;SDS011;20944;47.048;15.390;2023-09-18T10:08:16;4.68;;;4.05;;
12758;SDS011;20944;47.048;15.390;2023-09-18T10:10:48;5.65;;;3.85;;
12758;SDS011;20944;47.048;15.390;2023-09-18T10:13:20;3.90;;;3.22;;
12758;SDS011;20944;47.048;15.390;2023-09-18T10:15:57;4.05;;;3.67;;
12758;SDS011;20944;47.048;15.390;2023-09-18T10:18:42;5.22;;;3.42;;
12758;SDS011;20944;47.048;15.390;2023-09-18T10:21:22;4.20;;;3.80;;
12758;SDS011;20944;47.048;15.390;2023-09-18T10:23:59;5.05;;;3.85;;
12758;SDS011;20944;47.048;15.390;2023-09-18T10:26:35;3.80;;;3.50;;
12758;SDS011;20944;47.048;15.390;2023-09-18T10:29:11;4.05;;;3.58;;
12758;SDS011;20944;47.048;15.390;2023-09-18T10:31:40;4.43;;;3.63;;
12758;SDS011;20944;47.048;15.390;2023-09-18T10:34:12;3.05;;;2.85;;
12758;SDS011;20944;47.048;15.390;2023-09-18T10:36:43;4.00;;;3.70;;
12758;SDS011;20944;47.048;15.390;2023-09-18T10:39:14;3.88;;;3.35;;
12758;SDS011;20944;47.048;15.390;2023-09-18T10:41:47;3.22;;;2.90;;
12758;SDS011;20944;47.048;15.390;2023-09-18T10:44:17;4.03;;;3.60;;
12758;SDS011;20944;47.048;15.390;2023-09-18T10:46:46;4.15;;;3.40;;
12758;SDS011;20944;47.048;15.390;2023-09-18T10:49:15;6.18;;;3.92;;
12758;SDS011;20944;47.048;15.390;2023-09-18T10:51:44;3.97;;;3.60;;
12758;SDS011;20944;47.048;15.390;2023-09-18T10:54:15;5.20;;;3.05;;
12758;SDS011;20944;47.048;15.390;2023-09-18T10:56:48;5.45;;;3.20;;
12758;SDS011;20944;47.048;15.390;2023-09-18T10:59:19;5.15;;;3.58;;
12758;SDS011;20944;47.048;15.390;2023-09-18T11:01:49;3.50;;;3.20;;
12758;SDS011;20944;47.048;15.390;2023-09-18T11:04:20;3.88;;;3.47;;
12758;SDS011;20944;47.048;15.390;2023-09-18T11:07:04;6.60;;;3.83;;
12758;SDS011;20944;47.048;15.390;2023-09-18T11:09:40;3.72;;;3.33;;
12758;SDS011;20944;47.048;15.390;2023-09-18T11:12:10;3.95;;;3.65;;
12758;SDS011;20944;47.048;15.390;2023-09-18T11:14:44;3.60;;;3.28;;
12758;SDS011;20944;47.048;15.390;2023-09-18T11:17:32;3.50;;;3.20;;
12758;SDS011;20944;47.048;15.390;2023-09-18T11:20:04;4.30;;;3.90;;
12758;SDS011;20944;47.048;15.390;2023-09-18T11:22:37;4.18;;;3.30;;
12758;SDS011;20944;47.048;15.390;2023-09-18T11:27:58;3.33;;;3.00;;
12758;SDS011;20944;47.048;15.390;2023-09-18T11:30:29;5.47;;;3.25;;
12758;SDS011;20944;47.048;15.390;2023-09-18T11:32:59;3.30;;;3.00;;
12758;SDS011;20944;47.048;15.390;2023-09-18T11:35:29;3.35;;;3.05;;
12758;SDS011;20944;47.048;15.390;2023-09-18T11:38:06;3.97;;;3.60;;
12758;SDS011;20944;47.048;15.390;2023-09-18T11:40:36;3.45;;;3.15;;
12758;SDS011;20944;47.048;15.390;2023-09-18T11:43:18;3.40;;;3.15;;
12758;SDS011;20944;47.048;15.390;2023-09-18T11:45:52;5.47;;;3.60;;
12758;SDS011;20944;47.048;15.390;2023-09-18T11:48:22;4.13;;;3.72;;
12758;SDS011;20944;47.048;15.390;2023-09-18T11:50:55;6.22;;;3.78;;
12758;SDS011;20944;47.048;15.390;2023-09-18T11:53:26;5.40;;;3.80;;
12758;SDS011;20944;47.048;15.390;2023-09-18T11:55:56;4.18;;;3.88;;
12758;SDS011;20944;47.048;15.390;2023-09-18T11:58:24;3.67;;;3.38;;
12758;SDS011;20944;47.048;15.390;2023-09-18T12:00:54;6.78;;;3.80;;
12758;SDS011;20944;47.048;15.390;2023-09-18T12:03:23;4.03;;;3.72;;
12758;SDS011;20944;47.048;15.390;2023-09-18T12:05:56;3.40;;;3.10;;
12758;SDS011;20944;47.048;15.390;2023-09-18T12:08:26;4.18;;;3.78;;
12758;SDS011;20944;47.048;15.390;2023-09-18T12:10:57;3.80;;;3.45;;
12758;SDS011;20944;47.048;15.390;2023-09-18T12:13:29;3.45;;;3.17;;
12758;SDS011;20944;47.048;15.390;2023-09-18T12:16:01;4.00;;;3.70;;
12758;SDS011;20944;47.048;15.390;2023-09-18T12:18:32;4.70;;;4.03;;
12758;SDS011;20944;47.048;15.390;2023-09-18T12:21:01;4.10;;;3.80;;
12758;SDS011;20944;47.048;15.390;2023-09-18T12:23:37;3.45;;;3.25;;
12758;SDS011;20944;47.048;15.390;2023-09-18T12:26:06;3.17;;;2.92;;
12758;SDS011;20944;47.048;15.390;2023-09-18T12:28:36;3.67;;;3.33;;
12758;SDS011;20944;47.048;15.390;2023-09-18T12:31:07;3.33;;;3.05;;
12758;SDS011;20944;47.048;15.390;2023-09-18T12:33:38;5.90;;;3.35;;
12758;SDS011;20944;47.048;15.390;2023-09-18T12:36:08;3.70;;;3.40;;
12758;SDS011;20944;47.048;15.390;2023-09-18T12:38:37;3.75;;;3.45;;
12758;SDS011;20944;47.048;15.390;2023-09-18T12:41:05;4.50;;;3.33;;
12758;SDS011;20944;47.048;15.390;2023-09-18T12:43:35;3.03;;;2.83;;
12758;SDS011;20944;47.048;15.390;2023-09-18T12:46:05;3.35;;;3.03;;
12758;SDS011;20944;47.048;15.390;2023-09-18T12:48:38;4.05;;;3.42;;
12758;SDS011;20944;47.048;15.390;2023-09-18T12:51:12;4.13;;;3.72;;
12758;SDS011;20944;47.048;15.390;2023-09-18T12:53:41;3.63;;;3.33;;
12758;SDS011;20944;47.048;15.390;2023-09-18T12:56:10;5.20;;;4.00;;
12758;SDS011;20944;47.048;15.390;2023-09-18T12:58:39;4.25;;;3.65;;
12758;SDS011;20944;47.048;15.390;2023-09-18T13:01:30;5.22;;;3.83;;
12758;SDS011;20944;47.048;15.390;2023-09-18T13:03:58;4.55;;;3.72;;
12758;SDS011;20944;47.048;15.390;2023-09-18T13:06:32;4.65;;;3.55;;
12758;SDS011;20944;47.048;15.390;2023-09-18T13:09:14;5.68;;;3.70;;
12758;SDS011;20944;47.048;15.390;2023-09-18T13:11:53;3.90;;;3.58;;
12758;SDS011;20944;47.048;15.390;2023-09-18T13:14:22;5.72;;;3.88;;
12758;SDS011;20944;47.048;15.390;2023-09-18T13:16:52;3.92;;;3.63;;
12758;SDS011;20944;47.048;15.390;2023-09-18T13:19:20;5.88;;;4.05;;
12758;SDS011;20944;47.048;15.390;2023-09-18T13:21:49;4.72;;;3.53;;
12758;SDS011;20944;47.048;15.390;2023-09-18T13:24:25;3.40;;;3.17;;
12758;SDS011;20944;47.048;15.390;2023-09-18T13:26:55;3.78;;;3.47;;
12758;SDS011;20944;47.048;15.390;2023-09-18T13:29:25;3.38;;;3.13;;
12758;SDS011;20944;47.048;15.390;2023-09-18T13:31:55;3.75;;;3.45;;
12758;SDS011;20944;47.048;15.390;2023-09-18T13:34:27;3.75;;;3.45;;
12758;SDS011;20944;47.048;15.390;2023-09-18T13:36:56;3.92;;;3.63;;
12758;SDS011;20944;47.048;15.390;2023-09-18T13:39:25;4.97;;;3.88;;
12758;SDS011;20944;47.048;15.390;2023-09-18T13:41:53;3.53;;;3.22;;
12758;SDS011;20944;47.048;15.390;2023-09-18T13:44:23;4.00;;;3.42;;
12758;SDS011;20944;47.048;15.390;2023-09-18T13:46:51;3.67;;;3.38;;
12758;SDS011;20944;47.048;15.390;2023-09-18T13:49:22;3.95;;;3.60;;
12758;SDS011;20944;47.048;15.390;2023-09-18T13:51:54;5.13;;;3.72;;
12758;SDS011;20944;47.048;15.390;2023-09-18T13:54:23;3.83;;;3.53;;
12758;SDS011;20944;47.048;15.390;2023-09-18T13:56:51;4.57;;;3.85;;
12758;SDS011;20944;47.048;15.390;2023-09-18T13:59:24;4.25;;;3.40;;
12758;SDS011;20944;47.048;15.390;2023-09-18T14:01:54;6.05;;;3.60;;
12758;SDS011;20944;47.048;15.390;2023-09-18T14:04:24;3.97;;;3.20;;
12758;SDS011;20944;47.048;15.390;2023-09-18T14:06:56;3.65;;;3.35;;
12758;SDS011;20944;47.048;15.390;2023-09-18T14:09:25;6.35;;;3.97;;
12758;SDS011;20944;47.048;15.390;2023-09-18T14:11:55;3.97;;;3.40;;
12758;SDS011;20944;47.048;15.390;2023-09-18T14:14:24;3.97;;;3.58;;
12758;SDS011;20944;47.048;15.390;2023-09-18T14:16:52;4.25;;;3.80;;
12758;SDS011;20944;47.048;15.390;2023-09-18T14:19:25;3.65;;;3.35;;
12758;SDS011;20944;47.048;15.390;2023-09-18T14:21:53;9.85;;;3.83;;
12758;SDS011;20944;47.048;15.390;2023-09-18T14:24:21;5.00;;;3.60;;
12758;SDS011;20944;47.048;15.390;2023-09-18T14:26:52;3.92;;;3.63;;
12758;SDS011;20944;47.048;15.390;2023-09-18T14:29:22;5.15;;;3.33;;
12758;SDS011;20944;47.048;15.390;2023-09-18T14:31:50;5.78;;;3.35;;
12758;SDS011;20944;47.048;15.390;2023-09-18T14:34:18;5.03;;;3.53;;
12758;SDS011;20944;47.048;15.390;2023-09-18T14:36:48;5.55;;;3.97;;
12758;SDS011;20944;47.048;15.390;2023-09-18T14:39:16;3.97;;;3.63;;
12758;SDS011;20944;47.048;15.390;2023-09-18T14:41:44;5.43;;;3.53;;
12758;SDS011;20944;47.048;15.390;2023-09-18T14:44:14;6.95;;;3.58;;
12758;SDS011;20944;47.048;15.390;2023-09-18T14:46:42;3.33;;;3.13;;
12758;SDS011;20944;47.048;15.390;2023-09-18T14:49:11;6.28;;;3.25;;
12758;SDS011;20944;47.048;15.390;2023-09-18T14:51:39;3.38;;;3.08;;
12758;SDS011;20944;47.048;15.390;2023-09-18T14:54:09;4.20;;;3.22;;
12758;SDS011;20944;47.048;15.390;2023-09-18T14:56:37;5.50;;;3.35;;